createdAt,value
2022-09-13T00:00:59.897Z,14.33
2022-09-13T00:03:27.304Z,14.39
2022-09-13T00:05:53.885Z,14.29
2022-09-13T00:08:20.660Z,14.25
2022-09-13T00:10:47.552Z,14.25
2022-09-13T00:13:15.847Z,14.21
2022-09-13T00:15:48.127Z,14.26
2022-09-13T00:18:15.882Z,14.30
2022-09-13T00:20:42.406Z,14.33
2022-09-13T00:23:09.268Z,14.24
2022-09-13T00:25:36.172Z,14.21
2022-09-13T00:28:03.352Z,14.19
2022-09-13T00:30:29.931Z,14.23
2022-09-13T00:32:56.592Z,14.27
2022-09-13T00:35:23.878Z,14.31
2022-09-13T00:37:50.775Z,14.37
2022-09-13T00:40:17.454Z,14.21
2022-09-13T00:42:44.120Z,14.09
2022-09-13T00:45:10.850Z,14.01
2022-09-13T00:48:02.887Z,13.93
2022-09-13T00:50:37.410Z,14.00
2022-09-13T00:53:14.174Z,14.06
2022-09-13T00:55:46.666Z,14.06
2022-09-13T00:58:45.382Z,14.18
2022-09-13T01:01:14.571Z,14.02
2022-09-13T01:03:43.133Z,13.75
2022-09-13T01:06:22.717Z,13.59
2022-09-13T01:08:52.962Z,13.35
2022-09-13T01:11:30.027Z,13.12
2022-09-13T01:13:58.114Z,13.15
2022-09-13T01:16:24.828Z,13.24
2022-09-13T01:18:51.403Z,13.22
2022-09-13T01:21:27.195Z,13.36
2022-09-13T01:24:05.765Z,13.54
2022-09-13T01:26:44.620Z,13.67
2022-09-13T01:29:33.219Z,13.63
2022-09-13T01:32:18.504Z,13.80
2022-09-13T01:35:03.584Z,13.80
2022-09-13T01:37:57.922Z,13.80
2022-09-13T01:41:06.789Z,13.81
2022-09-13T01:43:51.986Z,13.86
2022-09-13T01:46:26.499Z,13.89
2022-09-13T01:49:03.433Z,13.72
2022-09-13T01:51:47.034Z,13.42
2022-09-13T01:54:17.703Z,13.37
2022-09-13T01:56:56.192Z,13.43
2022-09-13T01:59:36.303Z,13.47
2022-09-13T02:02:13.141Z,13.56
2022-09-13T02:04:46.815Z,13.64
2022-09-13T02:07:30.790Z,13.69
2022-09-13T02:10:05.464Z,13.63
2022-09-13T02:12:36.559Z,13.61
2022-09-13T02:15:25.352Z,13.75
2022-09-13T02:18:05.917Z,13.80
2022-09-13T02:20:36.948Z,13.82
2022-09-13T02:23:10.697Z,13.81
2022-09-13T02:25:39.854Z,13.71
2022-09-13T02:28:10.809Z,13.66
2022-09-13T02:30:41.432Z,13.50
2022-09-13T02:33:13.932Z,13.59
2022-09-13T02:35:49.540Z,13.41
2022-09-13T02:38:22.966Z,13.43
2022-09-13T02:40:57.584Z,13.57
2022-09-13T02:43:38.357Z,13.54
2022-09-13T02:46:37.330Z,13.50
2022-09-13T02:49:26.485Z,13.57
2022-09-13T02:52:10.014Z,13.52
2022-09-13T02:54:47.515Z,13.43
2022-09-13T02:57:20.283Z,13.35
2022-09-13T02:59:49.546Z,13.28
2022-09-13T03:02:20.030Z,13.29
2022-09-13T03:04:46.598Z,13.48
2022-09-13T03:07:14.713Z,13.43
2022-09-13T03:09:48.193Z,13.30
2022-09-13T03:12:34.435Z,13.22
2022-09-13T03:15:19.104Z,13.20
2022-09-13T03:18:13.552Z,13.23
2022-09-13T03:20:54.187Z,13.13
2022-09-13T03:23:24.898Z,13.10
2022-09-13T03:25:54.205Z,13.28
2022-09-13T03:28:29.882Z,13.44
2022-09-13T03:31:06.785Z,13.30
2022-09-13T03:33:48.320Z,13.22
2022-09-13T03:36:38.221Z,13.19
2022-09-13T03:39:16.098Z,13.27
2022-09-13T03:41:51.108Z,13.28
2022-09-13T03:44:21.981Z,13.31
2022-09-13T03:46:51.841Z,13.41
2022-09-13T03:49:23.239Z,13.44
2022-09-13T03:51:51.391Z,13.55
2022-09-13T03:54:32.566Z,13.67
2022-09-13T03:57:31.677Z,13.61
2022-09-13T03:59:58.482Z,13.55
2022-09-13T04:02:26.693Z,13.50
2022-09-13T04:04:53.585Z,13.57
2022-09-13T04:07:25.024Z,13.58
2022-09-13T04:09:51.687Z,13.65
2022-09-13T04:12:19.016Z,13.64
2022-09-13T04:14:45.978Z,13.62
2022-09-13T04:17:13.185Z,13.61
2022-09-13T04:19:40.467Z,13.58
2022-09-13T04:22:07.277Z,13.58
2022-09-13T04:24:33.970Z,13.64
2022-09-13T04:27:01.387Z,13.66
2022-09-13T04:29:29.041Z,13.54
2022-09-13T04:31:56.034Z,13.50
2022-09-13T04:34:23.243Z,13.45
2022-09-13T04:36:51.385Z,13.46
2022-09-13T04:39:18.584Z,13.47
2022-09-13T04:41:47.166Z,13.53
2022-09-13T04:44:17.712Z,13.61
2022-09-13T04:46:48.179Z,13.70
2022-09-13T04:49:16.770Z,13.73
2022-09-13T04:51:44.082Z,13.72
2022-09-13T04:54:15.163Z,13.76
2022-09-13T04:56:43.762Z,13.81
2022-09-13T04:59:11.347Z,13.87
2022-09-13T05:01:38.525Z,13.80
2022-09-13T05:04:06.329Z,13.70
2022-09-13T05:06:32.884Z,13.71
2022-09-13T05:08:59.451Z,13.76
2022-09-13T05:11:28.203Z,13.75
2022-09-13T05:13:57.504Z,13.84
2022-09-13T05:16:26.191Z,13.88
2022-09-13T05:18:53.736Z,13.84
2022-09-13T05:21:21.323Z,13.86
2022-09-13T05:23:52.529Z,13.85
2022-09-13T05:26:19.702Z,13.94
2022-09-13T05:28:46.344Z,14.06
2022-09-13T05:31:16.670Z,14.02
2022-09-13T05:33:43.967Z,14.01
2022-09-13T05:36:10.593Z,14.03
2022-09-13T05:38:37.343Z,14.13
2022-09-13T05:41:09.852Z,14.26
2022-09-13T05:43:37.053Z,14.32
2022-09-13T05:46:10.304Z,14.40
2022-09-13T05:48:36.884Z,14.31
2022-09-13T05:51:10.257Z,14.38
2022-09-13T05:53:39.794Z,14.32
2022-09-13T05:56:08.385Z,14.29
2022-09-13T05:58:38.855Z,14.31
2022-09-13T06:01:05.886Z,14.35
2022-09-13T06:03:32.598Z,14.46
2022-09-13T06:05:59.371Z,14.46
2022-09-13T06:08:27.544Z,14.48
2022-09-13T06:10:58.732Z,14.59
2022-09-13T06:13:26.094Z,14.60
2022-09-13T06:15:54.416Z,14.60
2022-09-13T06:18:21.471Z,14.63
2022-09-13T06:20:48.639Z,14.76
2022-09-13T06:23:15.625Z,14.83
2022-09-13T06:25:42.988Z,14.86
2022-09-13T06:28:10.050Z,14.95
2022-09-13T06:30:36.816Z,14.73
2022-09-13T06:33:04.394Z,14.81
2022-09-13T06:35:31.014Z,14.88
2022-09-13T06:37:58.634Z,14.95
2022-09-13T06:40:26.109Z,15.11
2022-09-13T06:42:52.691Z,15.11
2022-09-13T06:45:19.278Z,15.09
2022-09-13T06:47:46.554Z,15.18
2022-09-13T06:50:13.954Z,15.07
2022-09-13T06:52:40.563Z,15.04
2022-09-13T06:55:10.808Z,15.16
2022-09-13T06:57:39.166Z,15.07
2022-09-13T07:00:06.383Z,14.92
2022-09-13T07:02:32.925Z,15.14
2022-09-13T07:04:59.498Z,15.28
2022-09-13T07:07:26.124Z,15.01
2022-09-13T07:09:52.823Z,15.11
2022-09-13T07:12:20.686Z,15.21
2022-09-13T07:14:47.495Z,15.35
2022-09-13T07:17:14.107Z,15.45
2022-09-13T07:19:40.902Z,15.54
2022-09-13T07:22:08.089Z,15.56
2022-09-13T07:24:34.612Z,15.61
2022-09-13T07:27:01.177Z,15.68
2022-09-13T07:29:27.766Z,15.77
2022-09-13T07:31:56.716Z,15.99
2022-09-13T07:34:25.027Z,16.19
2022-09-13T07:36:52.555Z,16.23
2022-09-13T07:39:22.627Z,16.34
2022-09-13T07:41:50.202Z,16.40
2022-09-13T07:44:16.822Z,16.55
2022-09-13T07:46:44.206Z,16.35
2022-09-13T07:49:12.826Z,16.40
2022-09-13T07:51:41.814Z,16.53
2022-09-13T07:54:14.955Z,16.55
2022-09-13T07:56:42.462Z,16.94
2022-09-13T07:59:15.622Z,17.12
2022-09-13T08:01:44.959Z,17.28
2022-09-13T08:04:18.060Z,17.52
2022-09-13T08:06:46.328Z,17.69
2022-09-13T08:09:13.956Z,17.78
2022-09-13T08:11:43.654Z,18.03
2022-09-13T08:14:13.403Z,17.81
2022-09-13T08:16:40.167Z,17.81
2022-09-13T08:19:08.736Z,17.90
2022-09-13T08:21:37.841Z,17.92
2022-09-13T08:24:06.627Z,17.90
2022-09-13T08:26:35.842Z,18.38
2022-09-13T08:29:05.359Z,18.53
2022-09-13T08:31:32.461Z,18.74
2022-09-13T08:33:59.658Z,18.41
2022-09-13T08:36:28.061Z,18.37
2022-09-13T08:38:59.605Z,18.44
2022-09-13T08:41:26.102Z,18.55
2022-09-13T08:44:03.298Z,18.33
2022-09-13T08:46:37.573Z,18.32
2022-09-13T08:49:22.976Z,18.37
2022-09-13T08:52:05.436Z,18.16
2022-09-13T08:54:32.782Z,18.09
2022-09-13T08:57:26.705Z,17.87
2022-09-13T09:00:05.717Z,17.98
2022-09-13T09:02:48.751Z,18.34
2022-09-13T09:05:21.908Z,18.35
2022-09-13T09:08:11.055Z,18.37
2022-09-13T09:10:42.446Z,18.44
2022-09-13T09:13:22.704Z,18.46
2022-09-13T09:15:58.296Z,18.46
2022-09-13T09:18:31.153Z,18.34
2022-09-13T09:21:00.242Z,18.57
2022-09-13T09:23:39.441Z,18.67
2022-09-13T09:26:17.106Z,18.68
2022-09-13T09:28:50.631Z,18.88
2022-09-13T09:31:41.151Z,19.16
2022-09-13T09:34:42.772Z,19.30
2022-09-13T09:37:12.393Z,19.22
2022-09-13T09:39:40.826Z,19.49
2022-09-13T09:42:19.626Z,19.35
2022-09-13T09:44:53.012Z,19.29
2022-09-13T09:47:27.182Z,19.34
2022-09-13T09:50:10.077Z,19.55
2022-09-13T09:52:50.792Z,20.13
2022-09-13T09:55:23.224Z,20.50
2022-09-13T09:58:01.959Z,20.63
2022-09-13T10:00:31.795Z,20.61
2022-09-13T10:03:02.544Z,20.76
2022-09-13T10:05:31.329Z,20.97
2022-09-13T10:08:02.813Z,21.17
2022-09-13T10:10:37.044Z,21.53
2022-09-13T10:13:07.070Z,22.02
2022-09-13T10:15:35.860Z,21.87
2022-09-13T10:18:40.003Z,22.16
2022-09-13T10:21:06.727Z,22.42
2022-09-13T10:23:35.352Z,22.11
2022-09-13T10:26:10.222Z,22.58
2022-09-13T10:29:02.179Z,22.74
2022-09-13T10:31:33.935Z,22.85
2022-09-13T10:34:08.067Z,22.95
2022-09-13T10:36:53.118Z,23.55
2022-09-13T10:39:22.642Z,23.45
2022-09-13T10:41:54.633Z,23.64
2022-09-13T10:44:38.464Z,23.54
2022-09-13T10:47:11.286Z,23.73
2022-09-13T10:49:42.618Z,24.10
2022-09-13T10:52:32.809Z,24.31
2022-09-13T10:55:19.754Z,24.03
2022-09-13T10:57:51.668Z,23.95
2022-09-13T11:00:31.329Z,24.21
2022-09-13T11:03:26.414Z,24.02
2022-09-13T11:06:05.391Z,23.68
2022-09-13T11:08:42.779Z,23.48
2022-09-13T11:11:24.205Z,23.48
2022-09-13T11:13:57.879Z,23.25
2022-09-13T11:16:43.079Z,24.35
2022-09-13T11:19:31.267Z,23.45
2022-09-13T11:22:06.453Z,24.08
2022-09-13T11:24:45.314Z,25.29
2022-09-13T11:27:17.780Z,25.47
2022-09-13T11:29:55.226Z,25.14
2022-09-13T11:32:43.349Z,25.18
2022-09-13T11:35:25.216Z,25.53
2022-09-13T11:38:05.581Z,25.55
2022-09-13T11:40:36.356Z,25.52
2022-09-13T11:43:05.855Z,25.48
2022-09-13T11:45:49.804Z,25.97
2022-09-13T11:48:28.575Z,26.17
2022-09-13T11:51:09.969Z,26.56
2022-09-13T11:53:42.693Z,25.92
2022-09-13T11:56:14.963Z,26.25
2022-09-13T11:58:55.444Z,26.11
2022-09-13T12:01:39.038Z,25.72
2022-09-13T12:04:14.100Z,25.67
2022-09-13T12:06:45.285Z,26.38
2022-09-13T12:09:17.849Z,26.55
2022-09-13T12:11:51.089Z,26.19
2022-09-13T12:14:22.594Z,26.07
2022-09-13T12:16:58.179Z,25.73
2022-09-13T12:19:45.691Z,26.14
2022-09-13T12:22:13.801Z,25.82
2022-09-13T12:24:46.246Z,25.96
2022-09-13T12:27:37.685Z,26.05
2022-09-13T12:30:26.762Z,26.46
2022-09-13T12:32:58.587Z,26.53
2022-09-13T12:35:28.305Z,27.23
2022-09-13T12:38:45.577Z,26.51
2022-09-13T12:41:17.990Z,26.58
2022-09-13T12:44:16.850Z,27.66
2022-09-13T12:47:01.186Z,27.17
2022-09-13T12:53:09.819Z,26.91
2022-09-13T12:56:01.387Z,27.28
2022-09-13T12:58:59.164Z,26.75
2022-09-13T13:01:28.948Z,27.28
2022-09-13T13:03:55.492Z,27.45
2022-09-13T13:06:39.415Z,27.16
2022-09-13T13:09:25.334Z,26.61
2022-09-13T13:11:57.429Z,26.42
2022-09-13T13:14:39.266Z,26.52
2022-09-13T13:17:39.856Z,26.41
2022-09-13T13:20:44.158Z,25.98
2022-09-13T13:23:46.305Z,26.26
2022-09-13T13:26:21.568Z,25.89
2022-09-13T13:28:52.143Z,25.77
2022-09-13T13:31:25.073Z,25.59
2022-09-13T13:34:12.112Z,25.27
2022-09-13T13:36:41.617Z,25.61
2022-09-13T13:39:34.274Z,25.19
2022-09-13T13:42:03.234Z,24.99
2022-09-13T13:44:30.049Z,24.87
2022-09-13T13:47:08.757Z,25.06
2022-09-13T13:49:41.321Z,24.77
2022-09-13T13:52:08.133Z,24.53
2022-09-13T13:54:40.675Z,24.50
2022-09-13T13:57:26.147Z,23.99
2022-09-13T14:00:14.855Z,24.00
2022-09-13T14:02:53.438Z,23.77
2022-09-13T14:05:48.231Z,23.67
2022-09-13T14:08:33.058Z,23.40
2022-09-13T14:11:07.197Z,23.29
2022-09-13T14:13:39.766Z,23.18
2022-09-13T14:16:27.371Z,23.19
2022-09-13T14:19:18.969Z,23.26
2022-09-13T14:21:45.695Z,23.30
2022-09-13T14:24:24.780Z,23.24
2022-09-13T14:26:57.299Z,23.20
2022-09-13T14:29:26.299Z,23.15
2022-09-13T14:31:54.837Z,23.23
2022-09-13T14:34:32.855Z,23.09
2022-09-13T14:37:02.337Z,23.09
2022-09-13T14:39:30.574Z,23.10
2022-09-13T14:42:01.389Z,22.71
2022-09-13T14:44:29.318Z,22.82
2022-09-13T14:47:22.029Z,22.88
2022-09-13T14:50:06.105Z,22.64
2022-09-13T14:52:38.259Z,22.53
2022-09-13T14:55:14.534Z,22.64
2022-09-13T14:57:49.164Z,22.53
2022-09-13T15:00:16.486Z,22.59
2022-09-13T15:02:52.317Z,22.49
2022-09-13T15:05:21.253Z,22.48
2022-09-13T15:07:48.262Z,22.16
2022-09-13T15:10:17.917Z,22.13
2022-09-13T15:12:52.551Z,22.11
2022-09-13T15:15:31.751Z,21.94
2022-09-13T15:18:01.019Z,22.04
2022-09-13T15:20:31.500Z,21.99
2022-09-13T15:22:58.687Z,22.24
2022-09-13T15:25:29.743Z,22.20
2022-09-13T15:27:57.545Z,22.23
2022-09-13T15:30:30.429Z,22.16
2022-09-13T15:33:09.748Z,22.18
2022-09-13T15:35:39.133Z,22.17
2022-09-13T15:38:23.447Z,22.24
2022-09-13T15:41:01.333Z,22.19
2022-09-13T15:43:28.783Z,22.00
2022-09-13T15:45:57.431Z,22.04
2022-09-13T15:48:28.243Z,21.92
2022-09-13T15:51:10.115Z,21.94
2022-09-13T15:53:38.907Z,22.03
2022-09-13T15:56:06.965Z,21.99
2022-09-13T15:58:34.893Z,21.86
2022-09-13T16:01:02.658Z,21.84
2022-09-13T16:03:29.275Z,21.94
2022-09-13T16:05:56.538Z,21.84
2022-09-13T16:08:23.564Z,21.88
2022-09-13T16:10:50.832Z,21.87
2022-09-13T16:13:17.398Z,22.03
2022-09-13T16:15:44.172Z,22.03
2022-09-13T16:18:11.005Z,21.88
2022-09-13T16:20:37.680Z,21.85
2022-09-13T16:23:04.196Z,21.88
2022-09-13T16:25:31.573Z,21.78
2022-09-13T16:27:59.266Z,21.62
2022-09-13T16:30:27.923Z,21.63
2022-09-13T16:32:55.378Z,21.65
2022-09-13T16:35:22.947Z,21.60
2022-09-13T16:37:51.800Z,21.59
2022-09-13T16:40:19.497Z,21.49
2022-09-13T16:42:46.225Z,21.26
2022-09-13T16:45:13.421Z,21.18
2022-09-13T16:47:41.244Z,21.22
2022-09-13T16:50:09.102Z,21.22
2022-09-13T16:52:36.175Z,21.14
2022-09-13T16:55:04.280Z,21.09
2022-09-13T16:57:31.067Z,21.04
2022-09-13T16:59:58.899Z,20.94
2022-09-13T17:02:26.628Z,20.86
2022-09-13T17:04:53.767Z,20.77
2022-09-13T17:07:20.507Z,20.82
2022-09-13T17:09:47.248Z,20.65
2022-09-13T17:12:14.553Z,20.59
2022-09-13T17:14:47.520Z,20.57
2022-09-13T17:17:16.219Z,20.45
2022-09-13T17:19:44.710Z,20.34
2022-09-13T17:22:11.945Z,20.33
2022-09-13T17:24:39.622Z,20.29
2022-09-13T17:27:06.890Z,20.21
2022-09-13T17:29:35.289Z,20.23
2022-09-13T17:32:03.690Z,20.16
2022-09-13T17:34:32.440Z,20.12
2022-09-13T17:36:59.024Z,20.04
2022-09-13T17:39:25.970Z,20.05
2022-09-13T17:41:52.541Z,20.05
2022-09-13T17:44:19.157Z,20.13
2022-09-13T17:46:45.751Z,20.18
2022-09-13T17:49:12.376Z,20.20
2022-09-13T17:51:39.010Z,20.07
2022-09-13T17:54:09.474Z,20.01
2022-09-13T17:56:38.185Z,20.02
2022-09-13T17:59:16.453Z,19.93
2022-09-13T18:01:46.648Z,19.89
2022-09-13T18:04:15.243Z,19.91
2022-09-13T18:06:45.190Z,19.83
2022-09-13T18:09:14.003Z,19.76
2022-09-13T18:11:40.847Z,19.75
2022-09-13T18:14:10.898Z,19.67
2022-09-13T18:16:37.533Z,19.69
2022-09-13T18:19:04.164Z,19.83
2022-09-13T18:21:30.745Z,19.81
2022-09-13T18:23:58.631Z,19.83
2022-09-13T18:26:26.838Z,19.84
2022-09-13T18:28:56.137Z,19.82
2022-09-13T18:31:24.225Z,19.71
2022-09-13T18:33:58.917Z,19.71
2022-09-13T18:36:26.807Z,19.72
2022-09-13T18:38:54.235Z,19.69
2022-09-13T18:41:33.164Z,19.57
2022-09-13T18:44:00.163Z,19.68
2022-09-13T18:46:30.380Z,19.71
2022-09-13T18:48:58.088Z,19.59
2022-09-13T18:51:29.633Z,19.53
2022-09-13T18:53:58.169Z,19.53
2022-09-13T18:56:25.571Z,19.48
2022-09-13T18:58:53.956Z,19.44
2022-09-13T19:01:25.321Z,19.41
2022-09-13T19:04:08.359Z,19.40
2022-09-13T19:06:38.157Z,19.36
2022-09-13T19:09:06.809Z,19.29
2022-09-13T19:11:46.719Z,19.27
2022-09-13T19:14:19.218Z,19.28
2022-09-13T19:16:47.134Z,19.25
2022-09-13T19:19:14.944Z,19.20
2022-09-13T19:21:43.437Z,19.20
2022-09-13T19:24:18.389Z,19.21
2022-09-13T19:26:48.256Z,19.17
2022-09-13T19:29:18.209Z,19.12
2022-09-13T19:31:50.390Z,19.22
2022-09-13T19:34:19.801Z,19.23
2022-09-13T19:36:47.516Z,19.12
2022-09-13T19:39:14.945Z,19.10
2022-09-13T19:41:42.229Z,18.97
2022-09-13T19:44:10.926Z,19.00
2022-09-13T19:46:40.556Z,19.01
2022-09-13T19:49:08.664Z,18.98
2022-09-13T19:51:37.796Z,18.85
2022-09-13T19:54:06.216Z,18.85
2022-09-13T19:56:35.766Z,18.85
2022-09-13T19:59:03.007Z,18.79
2022-09-13T20:01:36.070Z,18.84
2022-09-13T20:04:05.489Z,18.86
2022-09-13T20:06:40.204Z,18.85
2022-09-13T20:09:08.781Z,18.71
2022-09-13T20:11:41.294Z,18.64
2022-09-13T20:14:09.038Z,18.74
2022-09-13T20:16:37.336Z,18.74
2022-09-13T20:19:13.947Z,18.71
2022-09-13T20:21:51.342Z,18.69
2022-09-13T20:24:18.837Z,18.66
2022-09-13T20:26:45.394Z,18.66
2022-09-13T20:29:12.516Z,18.73
2022-09-13T20:31:39.123Z,18.77
2022-09-13T20:34:07.281Z,18.72
2022-09-13T20:36:36.240Z,18.70
2022-09-13T20:39:03.938Z,18.65
2022-09-13T20:41:31.325Z,18.60
2022-09-13T20:44:01.492Z,18.56
2022-09-13T20:46:29.380Z,18.59
2022-09-13T20:48:56.076Z,18.56
2022-09-13T20:51:25.495Z,18.52
2022-09-13T20:53:58.018Z,18.57
2022-09-13T20:56:25.161Z,18.54
2022-09-13T20:58:58.139Z,18.50
2022-09-13T21:01:26.563Z,18.55
2022-09-13T21:03:54.861Z,18.61
2022-09-13T21:06:24.038Z,18.69
2022-09-13T21:08:51.259Z,18.73
2022-09-13T21:11:20.541Z,18.72
2022-09-13T21:13:49.816Z,18.74
2022-09-13T21:16:22.507Z,18.73
2022-09-13T21:18:50.272Z,18.74
2022-09-13T21:21:24.529Z,18.70
2022-09-13T21:23:51.560Z,18.62
2022-09-13T21:26:23.064Z,18.56
2022-09-13T21:28:50.598Z,18.63
2022-09-13T21:31:23.744Z,18.58
2022-09-13T21:34:14.573Z,18.59
2022-09-13T21:36:41.725Z,18.62
2022-09-13T21:39:08.282Z,18.54
2022-09-13T21:41:35.455Z,18.52
2022-09-13T21:44:02.397Z,18.47
2022-09-13T21:46:31.586Z,18.44
2022-09-13T21:49:00.720Z,18.37
2022-09-13T21:51:37.358Z,18.25
2022-09-13T21:54:06.737Z,18.23
2022-09-13T21:56:38.215Z,18.19
2022-09-13T21:59:07.333Z,18.17
2022-09-13T22:01:38.521Z,18.10
2022-09-13T22:04:06.526Z,18.10
2022-09-13T22:06:37.190Z,18.10
2022-09-13T22:09:07.488Z,18.06
2022-09-13T22:11:43.709Z,18.09
2022-09-13T22:14:15.128Z,18.07
2022-09-13T22:16:43.276Z,18.12
2022-09-13T22:19:12.643Z,18.14
2022-09-13T22:21:42.512Z,18.16
2022-09-13T22:24:12.947Z,18.10
2022-09-13T22:26:40.800Z,18.08
2022-09-13T22:29:08.129Z,18.01
2022-09-13T22:31:37.736Z,17.97
2022-09-13T22:34:05.108Z,17.89
2022-09-13T22:36:31.858Z,17.91
2022-09-13T22:38:58.555Z,17.93
2022-09-13T22:41:28.988Z,17.87
2022-09-13T22:43:56.238Z,17.84
2022-09-13T22:46:26.626Z,17.83
2022-09-13T22:48:54.394Z,17.90
2022-09-13T22:51:21.694Z,17.82
2022-09-13T22:53:50.067Z,17.82
2022-09-13T22:56:26.093Z,17.86
2022-09-13T22:58:54.826Z,17.85
2022-09-13T23:01:21.729Z,17.86
2022-09-13T23:03:49.198Z,17.85
2022-09-13T23:06:20.757Z,17.83
2022-09-13T23:08:49.073Z,17.84
2022-09-13T23:11:17.041Z,17.82
2022-09-13T23:13:45.136Z,17.90
2022-09-13T23:16:23.896Z,17.94
2022-09-13T23:18:51.408Z,17.98
2022-09-13T23:21:22.388Z,18.07
2022-09-13T23:23:49.296Z,18.10
2022-09-13T23:26:18.835Z,18.05
2022-09-13T23:28:47.526Z,18.06
2022-09-13T23:31:19.957Z,18.06
2022-09-13T23:33:49.518Z,18.09
2022-09-13T23:36:18.534Z,18.15
2022-09-13T23:38:47.708Z,18.14
2022-09-13T23:41:16.407Z,18.16
2022-09-13T23:43:43.519Z,18.18
2022-09-13T23:46:10.920Z,18.18
2022-09-13T23:48:38.227Z,18.16
2022-09-13T23:51:09.889Z,18.14
2022-09-13T23:53:37.738Z,18.16
2022-09-13T23:56:05.749Z,18.16
2022-09-13T23:58:32.302Z,18.15
